South Bend Regional Airport
KSBN : now visible

Airfield :











YOU CAN JOIN US ON...

 
LOGIN :

Register | Disclaimer

   EN    FR    IT 

 









Legend :    VFR   Marginal VFR   IFR   Intensive IFR   Very Intensive IFR
Visi :
Ceiling :
>= 8 km
>= 3000ft
5 to 8 km
1000 to 3000 ft
1500m to 5 km
500 to 1000 ft
800 to 1500m
200 to 500 ft
< 800m
< 200 ft
Symbols :   Thunderstorms  Fog  Heavy snow  Heavy precipitations  Wind > 20 kt






- Airport Elevation : 799 ft
- IATA code : SBN


KSBN - South Bend Regional

CURRENT METAR :
  • 220554Z AUTO 03005KT 8SM VCTS -RA BKN026 09/08 A3018 RMK AO2 LTG DSNT SE-W RAE37B51 SLP221 P0003 60029 T00940083 10117 20094 50000 $

EXPIRED METARs :
  • 220543Z AUTO 04005KT 8SM BKN029 BKN037 BKN055 09/08 A3016 RMK AO2 LTG DSNT SE-W RAE37 P0003 T00940083 $
  • 220454Z AUTO 07005KT 4SM RA BR SCT032 BKN047 OVC070 09/08 A3017 RMK AO2 LTG DSNT SE AND S RAB08 SLP219 P0017 T00940078 402110094 $
  • 220354Z 03006KT 10SM BKN037 OVC120 10/08 A3020 RMK AO2 SLP229 T01000078 $

TAF KSBN
Valid from the 22 at 06:00 until the 23 at 06:00 UTC


220520Z 2206/2306 07007KT 4SM -TSRA BR OVC025CB
FM220900 08008KT 3SM SHRA BR OVC006
FM221100 10009KT 3SM -SHRA BR OVC004 WS020/23040KT
FM221600 14010KT P6SM BKN025
FM221800 19012G20KT P6SM SCT035
KZAU FIR / North America



MET'MAP, your aeronautical weather chart ! - Copyright ORBIFLY December 2007 - Disclaimer

ORBIFLY MET'MAP TEAM :

Programming & Development : Alexandra Zaïnal
Concept & original design : Baudouin d'Aumeries
Assistance for programming : Marc-Olivier Méhu
Technical & hardware support : Manuel Goepfert

Contact : metmap@orbifly.com




SOURCES & CREDITS :

   NOAA       Earth
Advisory